TimeEDT,TemperatureF,Dew PointF,Humidity,Sea Level PressureIn,VisibilityMPH,Wind Direction,Wind SpeedMPH,Gust SpeedMPH,PrecipitationIn,Events,Conditions,WindDirDegrees,DateUTC
12:56 AM,71.2,71.2,100,30.02,7.0,Calm,Calm,-,N/A,,Clear,0,2013-10-06 04:56:00
1:56 AM,71.1,71.1,100,30.01,7.0,Calm,Calm,-,N/A,,Partly Cloudy,0,2013-10-06 05:56:00
2:56 AM,71.2,71.2,100,29.99,7.0,Calm,Calm,-,N/A,,Scattered Clouds,0,2013-10-06 06:56:00
3:56 AM,70.2,70.2,100,29.97,7.0,Calm,Calm,-,N/A,,Scattered Clouds,0,2013-10-06 07:56:00
4:26 AM,69.8,69.8,100,29.97,2.5,Calm,Calm,-,N/A,,Mostly Cloudy,0,2013-10-06 08:26:00
4:35 AM,69.8,69.8,100,29.96,1.2,Calm,Calm,-,N/A,,Mostly Cloudy,0,2013-10-06 08:35:00
4:56 AM,70.7,70.7,100,29.97,0.8,Calm,Calm,-,N/A,,Mostly Cloudy,0,2013-10-06 08:56:00
5:50 AM,71.6,71.6,100,29.96,1.5,Calm,Calm,-,N/A,,Mostly Cloudy,0,2013-10-06 09:50:00
5:56 AM,70.7,70.7,100,29.97,1.5,Calm,Calm,-,N/A,,Mostly Cloudy,0,2013-10-06 09:56:00
6:17 AM,71.6,71.6,100,29.97,0.8,Calm,Calm,-,N/A,,Mostly Cloudy,0,2013-10-06 10:17:00
6:39 AM,71.6,71.6,100,29.97,0.2,Calm,Calm,-,N/A,Fog,Fog,0,2013-10-06 10:39:00
6:56 AM,70.2,70.2,100,29.98,0.2,Calm,Calm,-,N/A,Fog,Fog,0,2013-10-06 10:56:00
7:01 AM,69.8,69.8,100,29.98,0.8,Calm,Calm,-,N/A,,Mostly Cloudy,0,2013-10-06 11:01:00
7:08 AM,69.8,69.8,100,29.98,1.5,Calm,Calm,-,N/A,,Scattered Clouds,0,2013-10-06 11:08:00
7:32 AM,69.8,69.8,100,29.98,3.0,Calm,Calm,-,N/A,,Scattered Clouds,0,2013-10-06 11:32:00
7:56 AM,70.9,70.9,100,29.99,7.0,Calm,Calm,-,N/A,,Scattered Clouds,0,2013-10-06 11:56:00
8:56 AM,74.5,74.5,100,29.99,10.0,Calm,Calm,-,N/A,,Mostly Cloudy,0,2013-10-06 12:56:00
9:56 AM,76.3,-9999,N/A,30.00,10.0,ESE,5.8,-,N/A,,Mostly Cloudy,110,2013-10-06 13:56:00
10:56 AM,79.0,74.1,85,30.00,10.0,ESE,5.8,-,N/A,,Mostly Cloudy,110,2013-10-06 14:56:00
11:56 AM,82.2,71.6,70,29.99,10.0,East,5.8,-,N/A,,Mostly Cloudy,90,2013-10-06 15:56:00
12:56 PM,85.3,71.6,63,29.97,10.0,ESE,5.8,-,N/A,,Mostly Cloudy,110,2013-10-06 16:56:00
1:56 PM,83.3,70.0,64,29.95,10.0,East,11.5,-,N/A,,Mostly Cloudy,90,2013-10-06 17:56:00
2:56 PM,83.5,70.9,66,29.92,10.0,ESE,11.5,-,N/A,,Mostly Cloudy,110,2013-10-06 18:56:00
3:56 PM,88.0,70.7,56,29.90,10.0,ESE,11.5,-,N/A,,Mostly Cloudy,110,2013-10-06 19:56:00
4:56 PM,82.4,72.7,72,29.89,10.0,SE,10.4,-,N/A,,Mostly Cloudy,130,2013-10-06 20:56:00
5:56 PM,81.9,73.4,75,29.88,10.0,ESE,8.1,-,N/A,,Mostly Cloudy,110,2013-10-06 21:56:00
6:56 PM,80.6,74.5,82,29.89,10.0,SE,10.4,-,N/A,,Mostly Cloudy,130,2013-10-06 22:56:00
7:56 PM,78.4,74.5,88,29.90,10.0,SE,8.1,-,N/A,,Mostly Cloudy,130,2013-10-06 23:56:00
8:56 PM,78.8,75.2,89,29.91,10.0,SSE,9.2,-,N/A,,Scattered Clouds,150,2013-10-07 00:56:00
9:56 PM,78.6,74.8,88,29.90,10.0,SSE,5.8,-,N/A,,Scattered Clouds,150,2013-10-07 01:56:00
10:56 PM,77.5,74.8,91,29.90,10.0,SSE,5.8,-,N/A,,Scattered Clouds,150,2013-10-07 02:56:00
11:56 PM,77.2,73.0,87,29.89,10.0,SSE,4.6,-,N/A,,Scattered Clouds,160,2013-10-07 03:56:00